Time;durP1;ratioP1;P1;durP2;ratioP2;P2;SDS_P1;SDS_P2;PMS_P1;PMS_P2;Temp;Humidity;BMP_temperature;BMP_pressure;BME280_temperature;BME280_humidity;BME280_pressure;Samples;Min_cycle;Max_cycle;Signal;HPM_P1;HPM_P2
2023/08/19 00:01:17;;;;;;;33.67;27.35;;;20.70;99.90;;;;;;5016417;28;20571;-70
2023/08/19 00:03:43;;;;;;;35.85;27.08;;;20.80;99.90;;;;;;5011279;28;20045;-71
2023/08/19 00:06:11;;;;;;;36.05;27.30;;;20.60;99.90;;;;;;5001874;28;20053;-70
2023/08/19 00:08:37;;;;;;;39.55;27.58;;;20.90;99.90;;;;;;4998727;28;20116;-70
2023/08/19 00:11:03;;;;;;;39.03;28.02;;;20.90;99.90;;;;;;4996692;28;20210;-70
2023/08/19 00:13:32;;;;;;;41.40;28.50;;;20.90;99.90;;;;;;5004730;28;20044;-70
2023/08/19 00:15:58;;;;;;;32.15;27.55;;;20.70;99.90;;;;;;5003652;28;20037;-70
2023/08/19 00:18:24;;;;;;;35.22;28.17;;;20.70;99.90;;;;;;4999255;28;20048;-70
2023/08/19 00:20:50;;;;;;;37.28;26.48;;;20.70;99.90;;;;;;5011317;28;20065;-70
2023/08/19 00:23:16;;;;;;;34.30;27.58;;;20.90;99.90;;;;;;5017459;28;20535;-69
2023/08/19 00:25:42;;;;;;;33.13;27.27;;;20.70;99.90;;;;;;5012577;28;20077;-70
2023/08/19 00:28:08;;;;;;;32.58;27.55;;;20.70;99.90;;;;;;5001451;28;20049;-70
2023/08/19 00:30:34;;;;;;;35.75;27.08;;;20.80;99.90;;;;;;4998353;28;20679;-70
2023/08/19 00:32:59;;;;;;;36.85;27.52;;;21.90;99.90;;;;;;5001803;28;20481;-70
2023/08/19 00:35:25;;;;;;;33.65;26.73;;;20.50;99.90;;;;;;5017043;28;20066;-69
2023/08/19 00:37:50;;;;;;;33.40;26.35;;;20.90;99.90;;;;;;4993516;28;20587;-70
2023/08/19 00:40:16;;;;;;;36.83;26.92;;;20.60;99.90;;;;;;4998802;28;20041;-69
2023/08/19 00:42:42;;;;;;;35.42;26.35;;;21.00;99.90;;;;;;5005468;28;20060;-70
2023/08/19 00:45:09;;;;;;;35.28;27.60;;;20.70;99.90;;;;;;5019848;28;20041;-71
2023/08/19 00:47:35;;;;;;;36.13;28.73;;;20.60;99.90;;;;;;5015287;28;20045;-70
2023/08/19 00:50:04;;;;;;;33.17;27.98;;;21.00;99.90;;;;;;5018618;28;20052;-69
2023/08/19 00:52:30;;;;;;;33.05;26.63;;;20.70;99.90;;;;;;5016734;28;20492;-70
2023/08/19 00:54:55;;;;;;;33.58;26.55;;;20.80;99.90;;;;;;5001523;28;20045;-69
2023/08/19 00:57:21;;;;;;;34.28;27.40;;;20.60;99.90;;;;;;5016888;28;20033;-69
2023/08/19 00:59:47;;;;;;;35.03;27.50;;;20.70;99.90;;;;;;5022467;28;20424;-70
2023/08/19 01:02:13;;;;;;;33.85;26.75;;;20.80;99.90;;;;;;5000537;28;20050;-69
2023/08/19 01:04:38;;;;;;;31.15;27.60;;;20.60;99.90;;;;;;5021968;28;20142;-70
2023/08/19 01:07:24;;;;;;;33.03;26.40;;;20.70;99.90;;;;;;4996037;28;20050;-70
2023/08/19 01:10:00;;;;;;;33.53;28.00;;;20.80;99.90;;;;;;4995529;28;20087;-70
2023/08/19 01:12:49;;;;;;;33.00;26.77;;;20.70;99.90;;;;;;4998733;28;20128;-70
2023/08/19 01:15:16;;;;;;;32.08;26.50;;;20.90;99.90;;;;;;5017327;28;21413;-69
2023/08/19 01:17:42;;;;;;;37.33;27.55;;;20.60;99.90;;;;;;5001187;28;20124;-70
2023/08/19 01:20:11;;;;;;;34.95;26.55;;;20.50;99.90;;;;;;4996182;28;20037;-70
2023/08/19 01:23:02;;;;;;;36.20;27.08;;;20.60;99.90;;;;;;5015841;28;20052;-70
2023/08/19 01:25:28;;;;;;;31.35;26.55;;;20.60;99.90;;;;;;5005145;28;20073;-69
2023/08/19 01:27:53;;;;;;;35.05;26.73;;;20.50;99.90;;;;;;5017660;28;20648;-70
2023/08/19 01:30:19;;;;;;;33.30;26.27;;;20.60;99.90;;;;;;5017370;28;20054;-70
2023/08/19 01:32:46;;;;;;;34.83;27.55;;;20.60;99.90;;;;;;4996758;28;20101;-70
2023/08/19 01:35:13;;;;;;;36.47;27.13;;;20.70;99.90;;;;;;5021799;28;20113;-70
2023/08/19 01:37:43;;;;;;;34.40;26.38;;;20.60;99.90;;;;;;5000006;28;20483;-70
2023/08/19 01:40:13;;;;;;;37.28;27.90;;;20.40;99.90;;;;;;5001994;28;20045;-69
2023/08/19 01:42:40;;;;;;;34.78;27.10;;;20.50;99.90;;;;;;5015549;28;20057;-70
2023/08/19 01:45:07;;;;;;;36.55;26.00;;;20.60;99.90;;;;;;4999670;28;20496;-70
2023/08/19 01:47:34;;;;;;;34.08;24.90;;;20.50;99.90;;;;;;4998021;28;20081;-71
2023/08/19 01:50:00;;;;;;;34.75;26.60;;;20.70;99.90;;;;;;4993497;28;20057;-69
2023/08/19 01:52:25;;;;;;;32.55;25.33;;;20.40;99.90;;;;;;4997755;28;20039;-70
2023/08/19 01:54:51;;;;;;;34.15;27.13;;;21.10;99.90;;;;;;5003253;28;20092;-70
2023/08/19 01:57:16;;;;;;;30.77;25.08;;;20.70;99.90;;;;;;5024085;28;20455;-70
2023/08/19 01:59:42;;;;;;;29.55;26.35;;;20.60;99.90;;;;;;5022153;28;20037;-70
2023/08/19 02:02:07;;;;;;;32.55;25.67;;;20.50;99.90;;;;;;5024852;28;20055;-70
2023/08/19 02:04:33;;;;;;;35.47;26.83;;;21.50;99.90;;;;;;5024469;28;20052;-70
2023/08/19 02:06:59;;;;;;;30.08;24.98;;;20.50;99.90;;;;;;5002154;28;20633;-70
2023/08/19 02:09:24;;;;;;;31.20;25.77;;;20.60;99.90;;;;;;5002111;28;20764;-71
2023/08/19 02:11:50;;;;;;;33.53;25.80;;;21.50;99.90;;;;;;5024923;28;20041;-69
2023/08/19 02:14:15;;;;;;;33.38;25.70;;;20.60;99.90;;;;;;5016050;28;20091;-70
2023/08/19 02:16:41;;;;;;;31.23;25.35;;;20.50;99.90;;;;;;4994875;28;20046;-69
2023/08/19 02:19:06;;;;;;;32.63;25.13;;;20.70;99.90;;;;;;5003019;28;20499;-70
2023/08/19 02:21:32;;;;;;;31.08;26.25;;;20.40;99.90;;;;;;4995097;28;20950;-69
2023/08/19 02:23:57;;;;;;;29.85;24.48;;;20.30;99.90;;;;;;5020344;28;20048;-69
2023/08/19 02:26:23;;;;;;;30.85;24.52;;;20.50;99.90;;;;;;5026727;28;20041;-70
2023/08/19 02:28:48;;;;;;;35.65;24.77;;;20.50;99.90;;;;;;5006725;28;20042;-69
2023/08/19 02:31:14;;;;;;;33.42;26.13;;;20.60;99.90;;;;;;5023273;28;20049;-70
2023/08/19 02:33:41;;;;;;;33.55;25.73;;;20.60;99.90;;;;;;5002065;28;20054;-70
2023/08/19 02:36:07;;;;;;;31.02;25.15;;;20.60;99.90;;;;;;5025657;28;20407;-70
2023/08/19 02:38:33;;;;;;;29.83;23.88;;;20.60;99.90;;;;;;5007071;28;20041;-69
2023/08/19 02:40:58;;;;;;;34.10;24.77;;;20.40;99.90;;;;;;5006065;28;20135;-69
2023/08/19 02:43:24;;;;;;;31.58;24.95;;;20.70;99.90;;;;;;4998937;28;20041;-70
2023/08/19 02:45:49;;;;;;;32.53;25.10;;;20.30;99.90;;;;;;5003069;28;20044;-69
2023/08/19 02:48:15;;;;;;;31.85;24.55;;;21.00;99.90;;;;;;5003742;28;20751;-70
2023/08/19 02:50:41;;;;;;;29.80;24.05;;;20.40;99.90;;;;;;4998977;28;20053;-70
2023/08/19 02:53:07;;;;;;;28.45;23.08;;;20.30;99.90;;;;;;5001990;28;20122;-70
2023/08/19 02:55:33;;;;;;;27.70;23.83;;;20.60;99.90;;;;;;4997634;28;20919;-70
2023/08/19 02:57:59;;;;;;;34.55;24.75;;;20.70;99.90;;;;;;5004865;28;20674;-70
2023/08/19 03:00:26;;;;;;;29.90;22.15;;;21.60;99.90;;;;;;4985263;28;20034;-70
2023/08/19 03:02:52;;;;;;;27.35;22.55;;;20.50;99.90;;;;;;5023132;28;20079;-70
2023/08/19 03:05:18;;;;;;;27.77;22.40;;;20.50;99.90;;;;;;5016916;28;20574;-70
2023/08/19 03:07:43;;;;;;;28.90;24.33;;;20.30;99.90;;;;;;5019509;28;20128;-71
2023/08/19 03:10:09;;;;;;;29.33;23.02;;;20.50;99.90;;;;;;5022578;28;20041;-70
2023/08/19 03:12:35;;;;;;;26.77;21.67;;;20.60;99.90;;;;;;5021321;28;20056;-70
2023/08/19 03:15:00;;;;;;;25.52;22.30;;;20.60;99.90;;;;;;5018831;28;20038;-70
2023/08/19 03:17:26;;;;;;;28.20;21.88;;;20.70;99.90;;;;;;5007106;28;20063;-70
2023/08/19 03:19:52;;;;;;;28.65;22.27;;;20.40;99.90;;;;;;5003329;28;20092;-70
2023/08/19 03:22:17;;;;;;;28.15;21.27;;;21.10;99.90;;;;;;5000750;28;20051;-70
2023/08/19 03:24:43;;;;;;;28.40;21.58;;;20.60;99.90;;;;;;5002965;28;20049;-70
2023/08/19 03:27:09;;;;;;;27.30;21.88;;;20.60;99.90;;;;;;5019006;28;20522;-69
2023/08/19 03:29:35;;;;;;;27.42;22.30;;;21.20;99.90;;;;;;5003189;28;20050;-70
2023/08/19 03:32:01;;;;;;;26.30;20.75;;;20.70;99.90;;;;;;5002367;28;20109;-70
2023/08/19 03:34:26;;;;;;;26.00;21.17;;;20.60;99.90;;;;;;5014428;28;20064;-69
2023/08/19 03:36:52;;;;;;;28.15;21.38;;;20.60;99.90;;;;;;4989303;28;20105;-70
2023/08/19 03:39:17;;;;;;;23.42;20.00;;;20.40;99.90;;;;;;4997334;28;20120;-69
2023/08/19 03:41:43;;;;;;;26.52;21.25;;;20.50;99.90;;;;;;5021447;28;20034;-70
2023/08/19 03:44:08;;;;;;;26.50;21.55;;;20.50;99.90;;;;;;5017844;28;20067;-70
2023/08/19 03:46:34;;;;;;;27.65;21.52;;;20.60;99.90;;;;;;5018570;28;20037;-70
2023/08/19 03:48:59;;;;;;;25.65;21.13;;;20.70;99.90;;;;;;5012368;28;20605;-70
2023/08/19 03:51:26;;;;;;;25.80;19.90;;;20.40;99.90;;;;;;4995002;28;20050;-69
2023/08/19 03:53:51;;;;;;;25.90;20.27;;;20.80;99.90;;;;;;5004202;28;20038;-70
2023/08/19 03:56:17;;;;;;;31.10;19.92;;;20.60;99.90;;;;;;5004393;28;20043;-70
2023/08/19 03:58:45;;;;;;;30.50;20.45;;;20.60;99.90;;;;;;5019300;28;20050;-70
2023/08/19 04:01:10;;;;;;;28.50;20.55;;;20.50;99.90;;;;;;5001110;28;20072;-69
2023/08/19 04:03:36;;;;;;;27.95;21.00;;;20.70;99.90;;;;;;5002418;28;20045;-70
2023/08/19 04:06:01;;;;;;;26.42;19.35;;;20.60;99.90;;;;;;4994918;28;20124;-70
2023/08/19 04:08:27;;;;;;;28.13;19.48;;;20.70;99.90;;;;;;5022269;28;20373;-70
2023/08/19 04:10:52;;;;;;;23.70;19.25;;;20.50;99.90;;;;;;5023503;28;20067;-70
2023/08/19 04:13:18;;;;;;;27.08;20.42;;;20.80;99.90;;;;;;4997493;28;20046;-70
2023/08/19 04:15:44;;;;;;;26.23;19.17;;;20.50;99.90;;;;;;5001322;28;20103;-70
2023/08/19 04:18:10;;;;;;;23.60;19.67;;;20.60;99.90;;;;;;5020833;28;20048;-69
2023/08/19 04:20:39;;;;;;;25.65;19.55;;;20.50;99.90;;;;;;4998589;28;20085;-69
2023/08/19 04:23:06;;;;;;;26.80;19.88;;;20.70;99.90;;;;;;5017901;28;20048;-70
2023/08/19 04:25:31;;;;;;;23.67;18.65;;;20.60;99.90;;;;;;5021253;28;20763;-70
2023/08/19 04:27:57;;;;;;;24.80;19.05;;;20.60;99.90;;;;;;4995123;28;20061;-70
2023/08/19 04:30:23;;;;;;;25.77;19.02;;;20.60;99.90;;;;;;5021382;28;20105;-69
2023/08/19 04:32:50;;;;;;;25.70;19.17;;;20.80;99.90;;;;;;5004598;28;20046;-70
2023/08/19 04:35:16;;;;;;;25.13;17.98;;;20.70;99.90;;;;;;4996847;28;20400;-70
2023/08/19 04:37:42;;;;;;;20.70;16.48;;;22.40;99.90;;;;;;5000102;28;20037;-70
2023/08/19 04:40:09;;;;;;;21.63;17.65;;;20.90;99.90;;;;;;5018080;28;20045;-70
2023/08/19 04:42:38;;;;;;;21.48;17.38;;;21.00;99.90;;;;;;5023345;28;20049;-70
2023/08/19 04:45:07;;;;;;;24.98;17.27;;;20.90;99.90;;;;;;5001231;28;20056;-69
2023/08/19 04:47:33;;;;;;;21.98;16.80;;;19.20;99.90;;;;;;5000804;28;20049;-70
2023/08/19 04:49:59;;;;;;;24.73;18.10;;;21.00;99.90;;;;;;5011640;28;20119;-71
2023/08/19 04:52:25;;;;;;;22.48;17.77;;;21.00;99.90;;;;;;5013930;28;20091;-69
2023/08/19 04:54:50;;;;;;;21.83;16.67;;;21.20;99.90;;;;;;4994935;28;20078;-70
2023/08/19 04:57:16;;;;;;;24.08;17.05;;;21.10;99.90;;;;;;5019354;28;20080;-70
2023/08/19 04:59:41;;;;;;;21.10;17.50;;;21.10;99.90;;;;;;5015338;28;20077;-70
2023/08/19 05:02:07;;;;;;;24.10;16.77;;;21.30;99.90;;;;;;5022092;28;20041;-70
2023/08/19 05:04:33;;;;;;;21.08;17.52;;;21.10;99.90;;;;;;5020624;28;20056;-70
2023/08/19 05:06:59;;;;;;;20.17;16.45;;;21.20;99.90;;;;;;5003387;28;20471;-70
2023/08/19 05:09:25;;;;;;;19.73;16.17;;;21.10;99.90;;;;;;4976682;28;20060;-70
2023/08/19 05:11:51;;;;;;;22.33;16.38;;;20.90;99.90;;;;;;5011432;28;20683;-70
2023/08/19 05:14:17;;;;;;;20.70;16.38;;;19.40;99.90;;;;;;5012341;28;20124;-70
2023/08/19 05:16:43;;;;;;;21.55;16.10;;;21.20;99.90;;;;;;5016356;28;20041;-70
2023/08/19 05:19:19;;;;;;;22.33;15.60;;;21.10;99.90;;;;;;4998882;28;20048;-70
2023/08/19 05:21:46;;;;;;;23.38;16.48;;;21.20;99.90;;;;;;5011977;28;20775;-69
2023/08/19 05:24:12;;;;;;;20.90;14.68;;;21.30;99.90;;;;;;4990435;28;20054;-70
2023/08/19 05:26:39;;;;;;;17.92;13.23;;;21.00;99.90;;;;;;5028465;28;20408;-70
2023/08/19 05:29:05;;;;;;;18.85;14.48;;;21.40;99.90;;;;;;5008598;28;20048;-69
2023/08/19 05:31:30;;;;;;;18.20;14.27;;;21.30;99.90;;;;;;5024752;28;20045;-70
2023/08/19 05:33:56;;;;;;;21.55;14.55;;;21.40;99.90;;;;;;5010507;28;20079;-70
2023/08/19 05:36:21;;;;;;;20.23;14.95;;;21.20;99.90;;;;;;4999164;28;20038;-69
2023/08/19 05:38:47;;;;;;;17.02;13.65;;;21.20;99.90;;;;;;5008709;28;20124;-69
2023/08/19 05:41:12;;;;;;;17.20;13.35;;;21.20;99.90;;;;;;5001386;28;20498;-70
2023/08/19 05:43:38;;;;;;;17.50;13.73;;;21.20;99.90;;;;;;4999026;28;20463;-70
2023/08/19 05:46:05;;;;;;;16.52;13.88;;;21.20;99.90;;;;;;5001342;28;20041;-70
2023/08/19 05:48:31;;;;;;;16.88;14.57;;;21.40;99.90;;;;;;5024678;28;20041;-70
2023/08/19 05:50:57;;;;;;;15.48;13.35;;;21.60;99.90;;;;;;5020956;28;20041;-70
2023/08/19 05:53:22;;;;;;;17.45;12.73;;;21.50;99.90;;;;;;5005350;28;20045;-70
2023/08/19 05:55:48;;;;;;;15.60;13.02;;;21.40;99.90;;;;;;5026575;28;20050;-70
2023/08/19 05:58:15;;;;;;;15.52;12.82;;;21.40;99.90;;;;;;5023323;28;20037;-70
2023/08/19 06:00:40;;;;;;;17.77;13.30;;;21.40;99.90;;;;;;5025519;28;20034;-70
2023/08/19 06:03:06;;;;;;;17.45;12.50;;;21.60;99.90;;;;;;5006713;28;20837;-70
2023/08/19 06:05:32;;;;;;;19.42;13.05;;;21.50;99.90;;;;;;4999703;28;20070;-70
2023/08/19 06:07:59;;;;;;;16.83;12.77;;;21.40;99.90;;;;;;5016155;28;20045;-70
2023/08/19 06:10:25;;;;;;;19.25;12.88;;;21.60;99.90;;;;;;5027872;28;20055;-70
2023/08/19 06:12:50;;;;;;;17.50;12.88;;;21.50;99.90;;;;;;5007989;28;20033;-70
2023/08/19 06:15:16;;;;;;;17.42;11.80;;;21.40;99.90;;;;;;5028138;28;20797;-69
2023/08/19 06:17:41;;;;;;;19.92;12.95;;;21.60;99.90;;;;;;5001564;28;20048;-70
2023/08/19 06:20:07;;;;;;;16.33;12.48;;;21.50;99.90;;;;;;5002013;28;20087;-70
2023/08/19 06:22:33;;;;;;;16.08;12.23;;;21.50;99.90;;;;;;5009376;28;20052;-70
2023/08/19 06:24:59;;;;;;;12.63;10.68;;;21.50;99.90;;;;;;4998266;28;20042;-69
2023/08/19 06:27:24;;;;;;;17.80;11.35;;;21.60;99.90;;;;;;5025962;28;20111;-70
2023/08/19 06:29:50;;;;;;;16.15;10.45;;;21.60;99.90;;;;;;4998158;28;20039;-70
2023/08/19 06:32:16;;;;;;;16.95;11.38;;;21.80;99.90;;;;;;5015623;28;20041;-70
2023/08/19 06:34:41;;;;;;;13.98;11.02;;;21.60;99.90;;;;;;5000845;28;20065;-70
2023/08/19 06:37:11;;;;;;;15.15;10.48;;;21.40;99.90;;;;;;5015331;28;20080;-70
2023/08/19 06:39:38;;;;;;;16.73;11.15;;;21.60;99.90;;;;;;5025378;28;20033;-70
2023/08/19 06:42:05;;;;;;;14.80;11.15;;;21.60;99.90;;;;;;5003583;28;20045;-69
2023/08/19 06:44:33;;;;;;;17.33;11.10;;;21.70;99.90;;;;;;5006391;28;20043;-70
2023/08/19 06:47:02;;;;;;;12.00;10.18;;;21.80;99.90;;;;;;5002398;28;20046;-70
2023/08/19 06:49:28;;;;;;;14.60;11.20;;;21.80;99.90;;;;;;5016569;28;20046;-70
2023/08/19 06:51:54;;;;;;;11.75;9.60;;;22.10;99.90;;;;;;5014109;28;20042;-71
2023/08/19 06:54:20;;;;;;;14.30;10.15;;;22.20;99.90;;;;;;5004131;28;20076;-70
2023/08/19 06:56:57;;;;;;;14.18;10.88;;;21.70;99.90;;;;;;5017606;28;20042;-70
2023/08/19 06:59:38;;;;;;;13.40;9.68;;;21.80;99.90;;;;;;5021769;28;20098;-70
2023/08/19 07:02:05;;;;;;;14.27;10.10;;;21.80;99.90;;;;;;5017654;28;20045;-71
2023/08/19 07:04:32;;;;;;;11.07;8.68;;;21.90;99.90;;;;;;5003596;28;20037;-70
2023/08/19 07:07:05;;;;;;;11.15;9.43;;;22.00;99.90;;;;;;5024556;28;20144;-69
2023/08/19 07:09:33;;;;;;;14.55;10.10;;;22.10;99.90;;;;;;4999759;28;20488;-70
2023/08/19 07:11:59;;;;;;;13.70;9.02;;;22.10;99.90;;;;;;4996762;28;20054;-70
2023/08/19 07:14:26;;;;;;;14.48;9.57;;;22.20;99.90;;;;;;5017815;28;20044;-70
2023/08/19 07:16:54;;;;;;;9.45;8.05;;;22.20;99.90;;;;;;5018587;28;20457;-70
2023/08/19 07:19:30;;;;;;;14.25;9.40;;;22.40;99.90;;;;;;4997044;28;20041;-70
2023/08/19 07:21:56;;;;;;;11.48;8.85;;;22.40;99.90;;;;;;5001447;28;20057;-70
2023/08/19 07:24:23;;;;;;;11.60;8.40;;;23.30;99.90;;;;;;5001182;28;20068;-70
2023/08/19 07:26:50;;;;;;;12.38;8.20;;;22.50;99.90;;;;;;5019460;28;20049;-70
2023/08/19 07:29:16;;;;;;;9.07;8.00;;;22.50;99.90;;;;;;4999135;28;20046;-70
2023/08/19 07:31:42;;;;;;;12.07;7.63;;;22.50;99.90;;;;;;5002051;28;20153;-70
2023/08/19 07:34:07;;;;;;;11.95;8.23;;;22.60;99.90;;;;;;5025168;28;20041;-70
2023/08/19 07:36:34;;;;;;;15.20;7.97;;;22.80;99.90;;;;;;5021991;28;20111;-71
2023/08/19 07:39:00;;;;;;;12.13;7.65;;;22.80;99.90;;;;;;5003316;28;20118;-70
2023/08/19 07:41:26;;;;;;;9.65;7.32;;;24.00;99.90;;;;;;4979013;28;20042;-70
2023/08/19 07:43:51;;;;;;;13.02;7.07;;;22.70;99.90;;;;;;5016544;28;20069;-70
2023/08/19 07:46:17;;;;;;;13.00;7.20;;;22.90;99.90;;;;;;5014993;28;20089;-70
2023/08/19 07:48:46;;;;;;;10.80;7.03;;;22.80;99.90;;;;;;5001893;28;20396;-69
2023/08/19 07:51:12;;;;;;;12.13;6.72;;;23.60;99.90;;;;;;5023058;28;20127;-70
2023/08/19 07:53:38;;;;;;;8.75;6.45;;;22.80;99.90;;;;;;5019953;28;20109;-70
2023/08/19 07:56:06;;;;;;;9.68;7.05;;;22.70;99.90;;;;;;5019716;28;20591;-69
2023/08/19 07:58:32;;;;;;;11.18;6.38;;;22.90;99.90;;;;;;5021138;28;20041;-70
2023/08/19 08:00:58;;;;;;;9.35;6.57;;;23.00;99.90;;;;;;5001339;28;20489;-70
2023/08/19 08:03:24;;;;;;;9.30;6.90;;;23.00;99.90;;;;;;5003843;28;20134;-70
2023/08/19 08:05:49;;;;;;;12.80;7.05;;;23.20;99.90;;;;;;5021492;28;20041;-71
2023/08/19 08:08:15;;;;;;;9.55;6.55;;;23.00;99.90;;;;;;5003534;28;20042;-71
2023/08/19 08:10:41;;;;;;;14.88;6.70;;;23.40;99.90;;;;;;5005321;28;20079;-70
2023/08/19 08:13:07;;;;;;;9.95;7.03;;;23.10;99.90;;;;;;4997809;28;20516;-71
2023/08/19 08:15:32;;;;;;;11.30;6.93;;;23.30;99.90;;;;;;5022583;28;20052;-70
2023/08/19 08:17:58;;;;;;;10.27;6.38;;;23.30;99.90;;;;;;4997336;28;20046;-70
2023/08/19 08:20:23;;;;;;;11.75;6.75;;;23.60;99.90;;;;;;5022804;28;20759;-70
2023/08/19 08:22:49;;;;;;;12.05;5.97;;;23.70;99.90;;;;;;4992162;28;20042;-70
2023/08/19 08:25:15;;;;;;;9.23;6.35;;;23.50;99.90;;;;;;5018384;28;20070;-70
2023/08/19 08:27:40;;;;;;;11.43;6.78;;;23.50;99.90;;;;;;5021037;28;20037;-70
2023/08/19 08:30:07;;;;;;;14.38;7.97;;;24.00;99.90;;;;;;5012741;28;20061;-70
2023/08/19 08:32:32;;;;;;;7.90;6.20;;;24.00;99.90;;;;;;5002342;28;20050;-71
2023/08/19 08:34:59;;;;;;;11.45;6.18;;;24.10;99.90;;;;;;4997359;28;20034;-70
2023/08/19 08:37:24;;;;;;;10.07;6.15;;;24.20;99.90;;;;;;4999578;28;20045;-70
2023/08/19 08:39:50;;;;;;;14.93;6.35;;;24.60;99.90;;;;;;5017216;28;20041;-70
2023/08/19 08:42:17;;;;;;;10.15;5.55;;;24.40;99.90;;;;;;5001549;28;20041;-70
2023/08/19 08:44:46;;;;;;;9.30;6.03;;;24.30;99.90;;;;;;5003222;28;20045;-70
2023/08/19 08:47:13;;;;;;;10.68;5.90;;;24.50;99.90;;;;;;4999596;28;20125;-70
2023/08/19 08:49:40;;;;;;;8.60;6.38;;;24.30;99.90;;;;;;5005462;28;20065;-70
2023/08/19 08:52:06;;;;;;;11.50;6.60;;;24.40;99.90;;;;;;5024986;28;20461;-70
2023/08/19 08:54:33;;;;;;;9.38;6.65;;;24.30;99.90;;;;;;5018726;28;20116;-70
2023/08/19 08:57:01;;;;;;;6.90;5.65;;;24.50;99.90;;;;;;5015782;28;20034;-70
2023/08/19 08:59:28;;;;;;;10.57;5.80;;;26.00;99.90;;;;;;5017049;28;20493;-71
2023/08/19 09:01:54;;;;;;;10.98;6.68;;;24.30;99.90;;;;;;5009795;28;20523;-70
2023/08/19 09:04:22;;;;;;;8.15;5.70;;;25.70;99.90;;;;;;4997306;28;20048;-70
2023/08/19 09:06:55;;;;;;;11.13;7.35;;;24.40;99.90;;;;;;5009955;28;20045;-70
2023/08/19 09:09:23;;;;;;;11.73;6.95;;;24.30;99.90;;;;;;5001720;28;20080;-70
2023/08/19 09:11:52;;;;;;;10.57;6.05;;;24.50;99.90;;;;;;5001790;28;20067;-70
2023/08/19 09:14:40;;;;;;;8.98;6.53;;;24.30;99.90;;;;;;5015705;28;20037;-70
2023/08/19 09:17:06;;;;;;;10.13;6.05;;;24.70;99.90;;;;;;5020469;28;20037;-70
2023/08/19 09:19:32;;;;;;;10.07;6.40;;;24.90;99.90;;;;;;4982651;28;20053;-70
2023/08/19 09:21:57;;;;;;;10.00;6.22;;;24.80;99.90;;;;;;4981672;28;20054;-70
2023/08/19 09:24:23;;;;;;;9.25;6.03;;;25.00;99.90;;;;;;5017237;28;20867;-69
2023/08/19 09:26:56;;;;;;;10.48;6.10;;;24.90;99.90;;;;;;5016831;28;20150;-70
2023/08/19 09:29:23;;;;;;;11.23;6.07;;;24.90;99.90;;;;;;5021253;28;20048;-71
2023/08/19 09:31:52;;;;;;;11.13;6.28;;;24.90;99.90;;;;;;5020098;28;20054;-70
2023/08/19 09:34:18;;;;;;;8.45;5.80;;;25.20;99.90;;;;;;5006685;28;20063;-70
2023/08/19 09:36:44;;;;;;;11.48;7.22;;;24.90;99.90;;;;;;5021132;28;20042;-70
2023/08/19 09:39:09;;;;;;;10.57;5.97;;;24.70;99.90;;;;;;5022098;28;20083;-70
2023/08/19 09:41:37;;;;;;;15.20;6.80;;;24.60;99.90;;;;;;5019495;28;20076;-70
2023/08/19 09:44:14;;;;;;;10.77;7.00;;;26.60;99.90;;;;;;4992679;28;20616;-70
2023/08/19 09:46:44;;;;;;;9.38;6.65;;;24.50;99.90;;;;;;4993897;28;20045;-70
2023/08/19 09:49:10;;;;;;;7.97;6.30;;;24.30;99.90;;;;;;5016532;28;20037;-72
2023/08/19 09:51:36;;;;;;;11.05;7.07;;;25.60;99.90;;;;;;5016635;28;20033;-70
2023/08/19 09:54:09;;;;;;;12.00;7.28;;;24.30;99.90;;;;;;4998783;28;20034;-70
2023/08/19 09:56:35;;;;;;;16.23;8.10;;;24.40;99.90;;;;;;4999638;28;20037;-70
2023/08/19 09:59:01;;;;;;;12.13;7.75;;;24.20;99.90;;;;;;5020319;28;20117;-70
2023/08/19 10:01:27;;;;;;;9.57;7.90;;;24.20;99.90;;;;;;5016518;28;20172;-70
2023/08/19 10:03:53;;;;;;;12.38;7.70;;;23.90;99.90;;;;;;5001268;28;20060;-71
2023/08/19 10:06:26;;;;;;;12.27;8.48;;;24.10;99.90;;;;;;4990421;28;20408;-70
2023/08/19 10:09:01;;;;;;;12.05;8.80;;;24.00;99.90;;;;;;5012370;28;20038;-70
2023/08/19 10:11:31;;;;;;;10.23;8.25;;;24.00;99.90;;;;;;5002849;28;20047;-70
2023/08/19 10:14:02;;;;;;;13.15;8.02;;;24.30;99.90;;;;;;4998791;28;20082;-70
2023/08/19 10:16:31;;;;;;;13.02;8.15;;;24.10;99.90;;;;;;5016128;28;20112;-70
2023/08/19 10:18:59;;;;;;;14.40;9.00;;;23.90;99.90;;;;;;5022011;28;20044;-70
2023/08/19 10:21:28;;;;;;;16.80;9.63;;;23.90;99.90;;;;;;5005272;28;20033;-71
2023/08/19 10:23:56;;;;;;;11.38;8.52;;;24.00;99.90;;;;;;5003615;28;20055;-70
2023/08/19 10:26:21;;;;;;;13.65;8.45;;;24.90;99.90;;;;;;5004617;28;20045;-70
2023/08/19 10:29:07;;;;;;;12.77;9.50;;;24.10;99.90;;;;;;5025388;28;20040;-70
2023/08/19 10:31:34;;;;;;;12.35;8.52;;;24.10;99.90;;;;;;5009907;28;20814;-70
2023/08/19 10:34:22;;;;;;;12.32;9.02;;;24.10;99.90;;;;;;5014516;28;20129;-70
2023/08/19 10:37:07;;;;;;;14.75;9.55;;;24.40;99.90;;;;;;4977033;28;20103;-70
2023/08/19 10:39:33;;;;;;;15.05;8.85;;;24.30;99.90;;;;;;4997275;28;20132;-70
2023/08/19 10:41:59;;;;;;;12.75;8.27;;;25.70;99.90;;;;;;5000815;28;20678;-70
2023/08/19 10:44:31;;;;;;;12.80;9.25;;;24.30;99.90;;;;;;4996713;28;20065;-71
2023/08/19 10:47:10;;;;;;;15.18;8.77;;;24.50;99.90;;;;;;5005940;28;20140;-71
2023/08/19 10:49:37;;;;;;;13.02;9.32;;;24.70;99.90;;;;;;5005342;28;20045;-70
2023/08/19 10:52:04;;;;;;;13.95;9.18;;;24.60;99.90;;;;;;5002648;28;20050;-70
2023/08/19 10:54:31;;;;;;;14.40;9.45;;;24.90;99.90;;;;;;5003198;28;20045;-70
2023/08/19 10:57:08;;;;;;;18.50;10.40;;;24.80;99.90;;;;;;5001474;28;20155;-70
2023/08/19 10:59:36;;;;;;;15.25;10.35;;;26.40;99.90;;;;;;5002966;28;20053;-71
2023/08/19 11:02:02;;;;;;;13.65;9.75;;;25.40;99.90;;;;;;5024277;28;20048;-70
2023/08/19 11:04:27;;;;;;;12.63;8.73;;;25.50;99.90;;;;;;4985567;28;20472;-71
2023/08/19 11:06:54;;;;;;;15.30;10.57;;;25.40;99.90;;;;;;5008208;28;20053;-70
2023/08/19 11:09:22;;;;;;;10.75;8.93;;;25.70;99.90;;;;;;5024783;28;20041;-71
2023/08/19 11:11:48;;;;;;;13.30;11.35;;;25.90;99.90;;;;;;5025760;28;20052;-70
2023/08/19 11:14:17;;;;;;;16.73;11.95;;;25.90;99.90;;;;;;4999158;28;20050;-70
2023/08/19 11:16:48;;;;;;;16.67;13.00;;;25.60;99.90;;;;;;4998855;28;20551;-70
2023/08/19 11:19:13;;;;;;;15.57;11.98;;;25.90;99.90;;;;;;5018661;28;20072;-72
2023/08/19 11:21:42;;;;;;;15.18;12.27;;;25.90;99.90;;;;;;5009951;28;20132;-70
2023/08/19 11:24:09;;;;;;;22.55;13.93;;;26.00;99.90;;;;;;4984972;28;20049;-71
2023/08/19 11:26:44;;;;;;;15.98;13.25;;;25.80;99.90;;;;;;5004767;28;20092;-71
2023/08/19 11:29:11;;;;;;;20.20;14.02;;;26.10;99.90;;;;;;5002035;28;20464;-71
2023/08/19 11:31:38;;;;;;;24.25;17.92;;;25.90;99.90;;;;;;4996319;28;20130;-70
2023/08/19 11:34:13;;;;;;;25.20;19.02;;;25.90;99.90;;;;;;4987290;28;20061;-70
2023/08/19 11:36:44;;;;;;;29.35;20.85;;;25.70;99.90;;;;;;4970682;28;20472;-70
2023/08/19 11:39:10;;;;;;;28.10;22.35;;;27.00;99.90;;;;;;4984953;28;20795;-71
2023/08/19 11:41:35;;;;;;;28.77;22.75;;;25.50;99.90;;;;;;4996865;28;20117;-71
2023/08/19 11:44:03;;;;;;;30.00;22.55;;;25.30;99.90;;;;;;4982537;28;20120;-70
2023/08/19 11:46:33;;;;;;;32.15;24.80;;;25.60;99.90;;;;;;4992234;28;21278;-70
2023/08/19 11:49:03;;;;;;;32.38;26.85;;;25.50;99.90;;;;;;4990397;28;20042;-71
2023/08/19 11:51:29;;;;;;;36.90;29.65;;;25.20;99.90;;;;;;4985836;28;20465;-71
2023/08/19 11:54:04;;;;;;;37.75;30.60;;;25.20;99.90;;;;;;4988432;28;20097;-71
2023/08/19 11:56:45;;;;;;;41.50;30.08;;;25.00;99.90;;;;;;4995392;28;20053;-71
2023/08/19 11:59:10;;;;;;;33.45;26.77;;;25.00;99.90;;;;;;4975229;28;20042;-71
2023/08/19 12:01:36;;;;;;;35.13;26.73;;;24.80;99.90;;;;;;4994827;28;20045;-71
2023/08/19 12:04:15;;;;;;;27.38;18.67;;;25.70;99.90;;;;;;4980135;28;20057;-71
2023/08/19 12:06:42;;;;;;;24.88;17.27;;;24.80;99.90;;;;;;4992458;28;20053;-71
2023/08/19 12:09:08;;;;;;;20.85;16.08;;;25.10;99.90;;;;;;4989420;28;20035;-70
2023/08/19 12:11:35;;;;;;;19.70;14.27;;;24.90;99.90;;;;;;4990578;28;20057;-70
2023/08/19 12:14:02;;;;;;;20.77;13.32;;;24.70;99.90;;;;;;4986205;28;20140;-70
2023/08/19 12:16:27;;;;;;;19.48;12.88;;;24.60;99.90;;;;;;4996036;28;20026;-70
2023/08/19 12:18:53;;;;;;;17.95;11.90;;;24.50;99.90;;;;;;4987695;28;20116;-70
2023/08/19 12:21:19;;;;;;;17.20;11.45;;;24.50;99.90;;;;;;4989693;28;20042;-70
2023/08/19 12:23:44;;;;;;;16.10;9.68;;;25.50;99.90;;;;;;4987419;28;20054;-70
2023/08/19 12:26:10;;;;;;;11.40;8.25;;;24.50;99.90;;;;;;4988458;28;20088;-70
2023/08/19 12:28:35;;;;;;;8.18;5.07;;;24.40;99.90;;;;;;4989380;28;20054;-70
2023/08/19 12:31:01;;;;;;;8.93;3.88;;;24.10;99.90;;;;;;4990364;28;20057;-69